createdAt,value
2023-01-01T00:00:50.131Z,7.95
2023-01-01T00:03:18.127Z,7.94
2023-01-01T00:05:45.956Z,7.94
2023-01-01T00:08:13.938Z,7.95
2023-01-01T00:10:41.799Z,7.96
2023-01-01T00:13:09.878Z,7.95
2023-01-01T00:15:37.748Z,7.94
2023-01-01T00:18:05.822Z,7.91
2023-01-01T00:20:35.527Z,7.91
2023-01-01T00:23:03.831Z,7.89
2023-01-01T00:25:33.673Z,7.86
2023-01-01T00:28:02.165Z,7.83
2023-01-01T00:30:30.161Z,7.78
2023-01-01T00:32:58.163Z,7.76
2023-01-01T00:35:26.551Z,7.76
2023-01-01T00:37:55.031Z,7.81
2023-01-01T00:40:23.151Z,7.87
2023-01-01T00:42:51.119Z,7.89
2023-01-01T00:45:22.265Z,7.89
2023-01-01T00:47:53.507Z,7.92
2023-01-01T00:50:22.192Z,7.93
2023-01-01T00:52:50.412Z,7.92
2023-01-01T00:55:18.418Z,7.92
2023-01-01T00:57:46.354Z,7.92
2023-01-01T01:00:15.146Z,7.92
2023-01-01T01:02:43.100Z,7.93
2023-01-01T01:05:11.433Z,7.88
2023-01-01T01:07:39.930Z,7.86
2023-01-01T01:10:08.329Z,7.86
2023-01-01T01:12:36.700Z,7.88
2023-01-01T01:15:05.380Z,7.87
2023-01-01T01:17:33.379Z,7.90
2023-01-01T01:20:05.891Z,7.91
2023-01-01T01:22:35.817Z,7.92
2023-01-01T01:25:03.686Z,7.91
2023-01-01T01:27:31.717Z,7.91
2023-01-01T01:29:59.559Z,7.91
2023-01-01T01:32:32.137Z,7.93
2023-01-01T01:35:00.127Z,7.92
2023-01-01T01:37:28.029Z,7.94
2023-01-01T01:39:55.881Z,7.93
2023-01-01T01:42:23.814Z,7.95
2023-01-01T01:45:00.432Z,7.97
2023-01-01T01:47:39.176Z,7.96
2023-01-01T01:50:11.606Z,7.97
2023-01-01T01:52:40.628Z,7.97
2023-01-01T01:55:09.270Z,8.00
2023-01-01T01:57:38.288Z,8.01
2023-01-01T02:00:10.934Z,8.03
2023-01-01T02:03:07.752Z,8.05
2023-01-01T02:05:40.257Z,8.06
2023-01-01T02:08:08.567Z,8.04
2023-01-01T02:10:36.572Z,8.07
2023-01-01T02:13:04.516Z,8.07
2023-01-01T02:15:35.833Z,8.06
2023-01-01T02:18:07.852Z,8.07
2023-01-01T02:20:59.640Z,8.08
2023-01-01T02:23:59.455Z,8.09
2023-01-01T02:26:45.662Z,8.09
2023-01-01T02:29:33.079Z,8.03
2023-01-01T02:32:09.947Z,8.01
2023-01-01T02:34:44.664Z,8.01
2023-01-01T02:37:14.716Z,8.00
2023-01-01T02:39:46.975Z,8.01
2023-01-01T02:42:14.931Z,8.00
2023-01-01T02:44:47.760Z,8.01
2023-01-01T02:47:17.967Z,8.03
2023-01-01T02:49:54.833Z,8.02
2023-01-01T02:52:38.297Z,8.03
2023-01-01T02:55:09.131Z,8.05
2023-01-01T02:57:42.999Z,8.06
2023-01-01T03:00:25.539Z,8.07
2023-01-01T03:03:20.896Z,8.07
2023-01-01T03:06:16.032Z,8.09
2023-01-01T03:08:48.700Z,8.10
2023-01-01T03:11:21.328Z,8.08
2023-01-01T03:13:59.416Z,8.09
2023-01-01T03:16:32.991Z,8.10
2023-01-01T03:19:12.866Z,8.13
2023-01-01T03:21:49.931Z,8.15
2023-01-01T03:24:27.264Z,8.12
2023-01-01T03:26:58.430Z,8.13
2023-01-01T03:29:30.893Z,8.15
2023-01-01T03:31:59.419Z,8.16
2023-01-01T03:34:31.999Z,8.21
2023-01-01T03:37:04.592Z,8.23
2023-01-01T03:39:38.746Z,8.26
2023-01-01T03:42:11.497Z,8.31
2023-01-01T03:44:53.970Z,8.32
2023-01-01T03:47:21.905Z,8.32
2023-01-01T03:49:50.468Z,8.32
2023-01-01T03:52:38.479Z,8.34
2023-01-01T03:55:30.450Z,8.36
2023-01-01T03:58:36.616Z,8.38
2023-01-01T04:01:09.119Z,8.38
2023-01-01T04:03:41.745Z,8.37
2023-01-01T04:06:10.807Z,8.34
2023-01-01T04:08:39.020Z,8.34
2023-01-01T04:11:30.984Z,8.36
2023-01-01T04:13:58.861Z,8.36
2023-01-01T04:16:26.967Z,8.36
2023-01-01T04:18:54.960Z,8.39
2023-01-01T04:21:27.438Z,8.40
2023-01-01T04:23:55.321Z,8.42
2023-01-01T04:26:23.246Z,8.44
2023-01-01T04:28:51.144Z,8.46
2023-01-01T04:31:23.555Z,8.46
2023-01-01T04:33:55.100Z,8.48
2023-01-01T04:36:22.994Z,8.49
2023-01-01T04:38:50.908Z,8.49
2023-01-01T04:41:18.781Z,8.48
2023-01-01T04:43:55.284Z,8.50
2023-01-01T04:46:23.462Z,8.52
2023-01-01T04:48:51.515Z,8.50
2023-01-01T04:51:20.347Z,8.43
2023-01-01T04:53:48.304Z,8.43
2023-01-01T04:56:21.076Z,8.39
2023-01-01T04:58:49.042Z,8.39
2023-01-01T05:01:22.121Z,8.42
2023-01-01T05:03:50.182Z,8.38
2023-01-01T05:06:18.079Z,8.36
2023-01-01T05:08:47.948Z,8.34
2023-01-01T05:11:21.804Z,8.33
2023-01-01T05:13:51.985Z,8.29
2023-01-01T05:16:21.529Z,8.29
2023-01-01T05:18:49.863Z,8.25
2023-01-01T05:21:22.240Z,8.24
2023-01-01T05:23:50.093Z,8.22
2023-01-01T05:26:21.235Z,8.21
2023-01-01T05:28:49.127Z,8.19
2023-01-01T05:31:21.753Z,8.18
2023-01-01T05:33:50.403Z,8.20
2023-01-01T05:36:32.157Z,8.26
2023-01-01T05:39:00.124Z,8.39
2023-01-01T05:41:28.196Z,8.59
2023-01-01T05:43:56.064Z,8.70
2023-01-01T05:46:25.131Z,9.06
2023-01-01T05:48:54.168Z,9.63
2023-01-01T05:51:26.623Z,9.93
2023-01-01T05:53:54.896Z,10.29
2023-01-01T05:56:22.833Z,10.56
2023-01-01T05:58:50.758Z,10.82
2023-01-01T06:01:19.720Z,10.88
2023-01-01T06:03:49.972Z,11.03
2023-01-01T06:06:22.733Z,11.08
2023-01-01T06:08:55.131Z,11.08
2023-01-01T06:11:23.287Z,11.08
2023-01-01T06:14:05.562Z,11.26
2023-01-01T06:16:33.884Z,11.33
2023-01-01T06:19:01.873Z,11.37
2023-01-01T06:21:34.480Z,11.45
2023-01-01T06:24:02.637Z,11.53
2023-01-01T06:26:32.052Z,11.53
2023-01-01T06:29:00.464Z,11.72
2023-01-01T06:31:28.767Z,11.86
2023-01-01T06:33:56.682Z,12.04
2023-01-01T06:36:25.286Z,12.19
2023-01-01T06:38:54.296Z,12.21
2023-01-01T06:41:25.953Z,12.27
2023-01-01T06:43:55.737Z,12.28
2023-01-01T06:46:30.867Z,12.32
2023-01-01T06:49:03.958Z,12.38
2023-01-01T06:51:33.629Z,12.41
2023-01-01T06:54:02.498Z,12.45
2023-01-01T06:56:30.343Z,12.57
2023-01-01T06:58:58.585Z,12.68
2023-01-01T07:01:28.225Z,12.72
2023-01-01T07:03:56.754Z,12.84
2023-01-01T07:06:24.990Z,13.03
2023-01-01T07:08:52.953Z,13.08
2023-01-01T07:11:26.631Z,13.09
2023-01-01T07:13:54.903Z,13.13
2023-01-01T07:16:23.239Z,13.23
2023-01-01T07:18:51.960Z,13.28
2023-01-01T07:21:37.858Z,13.32
2023-01-01T07:24:06.698Z,13.39
2023-01-01T07:26:39.718Z,13.49
2023-01-01T07:29:08.418Z,13.50
2023-01-01T07:31:40.891Z,13.50
2023-01-01T07:34:10.572Z,13.55
2023-01-01T07:36:38.522Z,13.57
2023-01-01T07:39:06.452Z,13.59
2023-01-01T07:41:34.422Z,13.62
2023-01-01T07:44:02.318Z,13.66
2023-01-01T07:46:30.567Z,13.68
2023-01-01T07:48:58.570Z,13.72
2023-01-01T07:51:26.556Z,13.75
2023-01-01T07:53:54.795Z,13.81
2023-01-01T07:56:22.783Z,13.89
2023-01-01T07:58:50.635Z,13.91
2023-01-01T08:01:18.596Z,13.99
2023-01-01T08:03:51.205Z,14.08
2023-01-01T08:06:19.217Z,14.10
2023-01-01T08:08:47.375Z,14.11
2023-01-01T08:11:20.092Z,14.08
2023-01-01T08:13:48.039Z,14.06
2023-01-01T08:16:20.749Z,14.07
2023-01-01T08:18:48.840Z,14.29
2023-01-01T08:21:16.808Z,14.42
2023-01-01T08:23:44.869Z,14.58
2023-01-01T08:26:17.561Z,14.68
2023-01-01T08:28:45.741Z,14.80
2023-01-01T08:31:13.602Z,14.84
2023-01-01T08:33:43.305Z,14.86
2023-01-01T08:36:12.210Z,14.93
2023-01-01T08:38:40.126Z,14.93
2023-01-01T08:41:20.285Z,14.91
2023-01-01T08:43:48.095Z,14.66
2023-01-01T08:46:16.019Z,14.45
2023-01-01T08:48:48.737Z,14.21
2023-01-01T08:51:16.878Z,14.10
2023-01-01T08:53:50.655Z,13.90
2023-01-01T08:56:21.921Z,13.77
2023-01-01T08:58:50.505Z,13.75
2023-01-01T09:01:23.181Z,13.60
2023-01-01T09:03:51.428Z,13.58
2023-01-01T09:06:19.192Z,13.61
2023-01-01T09:08:47.045Z,13.65
2023-01-01T09:11:28.605Z,13.37
2023-01-01T09:13:56.563Z,13.12
2023-01-01T09:16:24.575Z,13.13
2023-01-01T09:19:04.856Z,13.00
2023-01-01T09:21:32.966Z,12.92
2023-01-01T09:24:00.819Z,12.83
2023-01-01T09:26:28.922Z,12.82
2023-01-01T09:28:56.887Z,12.88
2023-01-01T09:31:25.019Z,13.27
2023-01-01T09:33:52.992Z,13.77
2023-01-01T09:36:23.593Z,14.29
2023-01-01T09:38:52.053Z,14.68
2023-01-01T09:41:33.878Z,14.91
2023-01-01T09:44:04.681Z,15.00
2023-01-01T09:46:34.857Z,15.08
2023-01-01T09:49:06.315Z,15.17
2023-01-01T09:51:39.912Z,15.26
2023-01-01T09:54:28.781Z,15.27
2023-01-01T09:56:59.090Z,15.29
2023-01-01T09:59:27.391Z,15.34
2023-01-01T10:02:06.640Z,15.36
2023-01-01T10:04:51.269Z,15.38
2023-01-01T10:07:33.414Z,15.54
2023-01-01T10:10:45.899Z,15.67
2023-01-01T10:13:17.338Z,15.77
2023-01-01T10:16:05.444Z,15.91
2023-01-01T10:18:35.089Z,15.95
2023-01-01T10:21:11.339Z,15.99
2023-01-01T10:23:49.001Z,16.07
2023-01-01T10:26:22.930Z,16.19
2023-01-01T10:29:07.747Z,16.23
2023-01-01T10:31:37.452Z,16.30
2023-01-01T10:34:27.672Z,16.35
2023-01-01T10:37:00.437Z,16.27
2023-01-01T10:39:28.376Z,16.09
2023-01-01T10:44:39.080Z,15.96
2023-01-01T10:47:30.750Z,15.98
2023-01-01T10:50:06.567Z,15.98
2023-01-01T10:52:38.932Z,16.06
2023-01-01T10:55:07.933Z,16.14
2023-01-01T10:57:45.945Z,16.27
2023-01-01T11:00:20.258Z,16.50
2023-01-01T11:02:48.201Z,16.66
2023-01-01T11:05:22.697Z,16.91
2023-01-01T11:07:51.108Z,17.17
2023-01-01T11:10:23.933Z,17.34
2023-01-01T11:13:07.839Z,17.48
2023-01-01T11:15:40.475Z,17.45
2023-01-01T11:18:21.824Z,17.02
2023-01-01T11:20:56.700Z,16.90
2023-01-01T11:23:36.141Z,16.79
2023-01-01T11:26:20.044Z,16.65
2023-01-01T11:29:29.311Z,16.56
2023-01-01T11:32:07.975Z,16.47
2023-01-01T11:34:49.787Z,16.70
2023-01-01T11:37:25.967Z,17.02
2023-01-01T11:39:54.427Z,17.04
2023-01-01T11:42:34.119Z,17.04
2023-01-01T11:45:04.901Z,16.94
2023-01-01T11:47:37.039Z,16.85
2023-01-01T11:50:29.724Z,16.75
2023-01-01T11:53:02.070Z,16.62
2023-01-01T11:55:39.466Z,16.73
2023-01-01T11:58:19.167Z,16.67
2023-01-01T12:00:54.241Z,16.55
2023-01-01T12:03:33.617Z,16.65
2023-01-01T12:06:11.336Z,16.92
2023-01-01T12:08:55.419Z,16.80
2023-01-01T12:11:39.148Z,16.70
2023-01-01T12:14:32.694Z,16.37
2023-01-01T12:17:11.485Z,16.27
2023-01-01T12:20:00.634Z,16.05
2023-01-01T12:22:33.643Z,15.95
2023-01-01T12:25:01.543Z,15.85
2023-01-01T12:27:46.718Z,15.81
2023-01-01T12:30:20.559Z,15.87
2023-01-01T12:33:08.610Z,16.22
2023-01-01T12:36:02.835Z,16.20
2023-01-01T12:38:33.745Z,16.19
2023-01-01T12:41:42.100Z,16.22
2023-01-01T12:44:19.072Z,16.25
2023-01-01T12:46:50.475Z,16.11
2023-01-01T12:49:37.813Z,15.91
2023-01-01T12:52:15.980Z,15.75
2023-01-01T12:55:24.467Z,15.61
2023-01-01T12:58:30.231Z,15.24
2023-01-01T13:01:03.006Z,15.12
2023-01-01T13:03:50.724Z,15.13
2023-01-01T13:06:28.633Z,15.02
2023-01-01T13:09:01.031Z,14.88
2023-01-01T13:11:29.564Z,14.73
2023-01-01T13:13:57.567Z,14.77
2023-01-01T13:16:42.885Z,14.73
2023-01-01T13:19:33.405Z,14.59
2023-01-01T13:22:30.458Z,14.52
2023-01-01T13:25:15.132Z,14.49
2023-01-01T13:28:02.687Z,14.44
2023-01-01T13:30:36.795Z,14.43
2023-01-01T13:33:34.947Z,14.37
2023-01-01T13:36:28.663Z,14.33
2023-01-01T13:38:59.384Z,14.35
2023-01-01T13:41:32.222Z,14.35
2023-01-01T13:44:04.354Z,14.31
2023-01-01T13:46:44.626Z,14.25
2023-01-01T13:49:31.203Z,14.19
2023-01-01T13:52:05.784Z,14.13
2023-01-01T13:54:52.866Z,14.06
2023-01-01T13:57:54.689Z,14.01
2023-01-01T14:00:24.070Z,14.00
2023-01-01T14:03:03.981Z,13.99
2023-01-01T14:05:44.700Z,13.95
2023-01-01T14:08:34.860Z,13.89
2023-01-01T14:11:03.531Z,13.84
2023-01-01T14:13:34.833Z,13.82
2023-01-01T14:16:03.941Z,13.81
2023-01-01T14:18:40.571Z,13.82
2023-01-01T14:21:19.772Z,13.79
2023-01-01T14:23:56.704Z,13.79
2023-01-01T14:26:29.219Z,13.76
2023-01-01T14:29:01.216Z,13.77
2023-01-01T14:31:33.271Z,13.76
2023-01-01T14:34:05.832Z,13.76
2023-01-01T14:36:33.920Z,13.75
2023-01-01T14:39:06.557Z,13.75
2023-01-01T14:41:39.205Z,13.71
2023-01-01T14:44:13.014Z,13.69
2023-01-01T14:46:41.750Z,13.61
2023-01-01T14:49:16.747Z,13.57
2023-01-01T14:51:46.819Z,13.47
2023-01-01T14:54:21.015Z,13.43
2023-01-01T14:56:53.687Z,13.34
2023-01-01T14:59:51.359Z,13.28
2023-01-01T15:02:27.301Z,13.17
2023-01-01T15:04:55.269Z,13.10
2023-01-01T15:07:31.094Z,12.99
2023-01-01T15:10:05.449Z,12.88
2023-01-01T15:12:35.224Z,12.72
2023-01-01T15:15:03.141Z,12.62
2023-01-01T15:17:46.011Z,12.54
2023-01-01T15:20:25.747Z,12.44
2023-01-01T15:22:55.978Z,12.33
2023-01-01T15:25:23.869Z,12.28
2023-01-01T15:27:53.536Z,12.17
2023-01-01T15:30:29.207Z,12.10
2023-01-01T15:33:01.840Z,12.07
2023-01-01T15:35:32.454Z,12.04
2023-01-01T15:38:15.717Z,12.03
2023-01-01T15:40:51.079Z,11.99
2023-01-01T15:43:24.298Z,11.89
2023-01-01T15:46:19.984Z,11.80
2023-01-01T15:48:52.358Z,11.73
2023-01-01T15:51:20.855Z,11.62
2023-01-01T15:53:53.011Z,11.55
2023-01-01T15:56:21.267Z,11.48
2023-01-01T15:59:15.244Z,11.44
2023-01-01T16:01:43.224Z,11.38
2023-01-01T16:04:29.611Z,11.34
2023-01-01T16:06:58.389Z,11.21
2023-01-01T16:09:26.436Z,11.09
2023-01-01T16:11:55.500Z,11.01
2023-01-01T16:14:23.809Z,10.96
2023-01-01T16:16:57.533Z,10.90
2023-01-01T16:19:25.682Z,10.82
2023-01-01T16:21:58.779Z,10.74
2023-01-01T16:24:26.856Z,10.68
2023-01-01T16:26:54.736Z,10.62
2023-01-01T16:29:22.565Z,10.62
2023-01-01T16:31:52.043Z,10.54
2023-01-01T16:34:24.624Z,10.54
2023-01-01T16:36:52.484Z,10.48
2023-01-01T16:39:22.636Z,10.41
2023-01-01T16:41:50.885Z,10.29
2023-01-01T16:44:18.842Z,10.20
2023-01-01T16:46:46.915Z,10.18
2023-01-01T16:49:14.768Z,10.15
2023-01-01T16:51:44.047Z,10.05
2023-01-01T16:54:12.221Z,10.00
2023-01-01T16:56:40.100Z,9.95
2023-01-01T16:59:07.914Z,9.89
2023-01-01T17:01:36.001Z,9.86
2023-01-01T17:04:03.960Z,9.82
2023-01-01T17:06:31.947Z,9.75
2023-01-01T17:09:02.704Z,9.68
2023-01-01T17:11:30.944Z,9.65
2023-01-01T17:14:00.841Z,9.60
2023-01-01T17:16:38.775Z,9.56
2023-01-01T17:19:16.753Z,9.50
2023-01-01T17:21:46.092Z,9.48
2023-01-01T17:24:14.473Z,9.42
2023-01-01T17:26:42.799Z,9.38
2023-01-01T17:29:10.744Z,9.34
2023-01-01T17:31:38.747Z,9.33
2023-01-01T17:34:07.204Z,9.30
2023-01-01T17:36:37.108Z,9.23
2023-01-01T17:39:05.091Z,9.21
2023-01-01T17:41:32.912Z,9.22
2023-01-01T17:44:00.851Z,9.18
2023-01-01T17:46:31.138Z,9.14
2023-01-01T17:48:59.107Z,9.10
2023-01-01T17:51:27.554Z,9.12
2023-01-01T17:53:56.367Z,9.11
2023-01-01T17:56:24.648Z,9.11
2023-01-01T17:58:53.598Z,9.10
2023-01-01T18:01:24.642Z,9.05
2023-01-01T18:03:57.315Z,9.00
2023-01-01T18:06:25.333Z,9.00
2023-01-01T18:08:57.735Z,8.97
2023-01-01T18:11:26.420Z,8.92
2023-01-01T18:13:54.410Z,8.90
2023-01-01T18:16:22.381Z,8.88
2023-01-01T18:18:50.291Z,8.88
2023-01-01T18:21:22.068Z,8.82
2023-01-01T18:23:51.246Z,8.81
2023-01-01T18:26:19.252Z,8.78
2023-01-01T18:28:47.249Z,8.79
2023-01-01T18:31:16.293Z,8.80
2023-01-01T18:33:44.424Z,8.78
2023-01-01T18:36:16.159Z,8.77
2023-01-01T18:38:46.406Z,8.76
2023-01-01T18:41:36.372Z,8.79
2023-01-01T18:44:04.215Z,8.83
2023-01-01T18:46:32.120Z,8.82
2023-01-01T18:49:00.115Z,8.79
2023-01-01T18:51:28.223Z,8.76
2023-01-01T18:53:57.803Z,8.72
2023-01-01T18:56:26.769Z,8.71
2023-01-01T18:58:56.023Z,8.70
2023-01-01T19:01:24.766Z,8.70
2023-01-01T19:03:56.012Z,8.67
2023-01-01T19:06:27.932Z,8.65
2023-01-01T19:08:59.269Z,8.63
2023-01-01T19:11:27.205Z,8.63
2023-01-01T19:13:55.127Z,8.62
2023-01-01T19:16:27.674Z,8.61
2023-01-01T19:18:55.868Z,8.59
2023-01-01T19:21:24.904Z,8.59
2023-01-01T19:23:53.542Z,8.60
2023-01-01T19:26:35.376Z,8.58
2023-01-01T19:29:20.383Z,8.54
2023-01-01T19:31:56.782Z,8.54
2023-01-01T19:34:25.105Z,8.49
2023-01-01T19:36:53.296Z,8.48
2023-01-01T19:39:21.165Z,8.47
2023-01-01T19:41:49.085Z,8.44
2023-01-01T19:44:22.935Z,8.40
2023-01-01T19:46:52.962Z,8.39
2023-01-01T19:49:20.928Z,8.36
2023-01-01T19:51:48.747Z,8.32
2023-01-01T19:54:16.605Z,8.34
2023-01-01T19:56:44.535Z,8.32
2023-01-01T19:59:12.415Z,8.33
2023-01-01T20:01:40.680Z,8.31
2023-01-01T20:04:08.785Z,8.30
2023-01-01T20:06:37.538Z,8.27
2023-01-01T20:09:05.437Z,8.24
2023-01-01T20:11:33.380Z,8.22
2023-01-01T20:14:01.298Z,8.18
2023-01-01T20:16:29.292Z,8.14
2023-01-01T20:18:57.220Z,8.11
2023-01-01T20:21:43.826Z,8.13
2023-01-01T20:24:12.223Z,8.13
2023-01-01T20:26:40.149Z,8.06
2023-01-01T20:29:23.244Z,8.08
2023-01-01T20:31:52.574Z,8.05
2023-01-01T20:34:20.715Z,8.04
2023-01-01T20:37:11.935Z,7.99
2023-01-01T20:39:40.033Z,7.97
2023-01-01T20:42:12.738Z,7.95
2023-01-01T20:44:43.987Z,7.95
2023-01-01T20:47:16.514Z,7.91
2023-01-01T20:49:44.848Z,7.88
2023-01-01T20:52:17.451Z,7.79
2023-01-01T20:54:53.762Z,7.81
2023-01-01T20:57:26.808Z,7.79
2023-01-01T20:59:54.738Z,7.81
2023-01-01T21:02:27.845Z,7.83
2023-01-01T21:05:00.929Z,7.81
2023-01-01T21:07:28.941Z,7.77
2023-01-01T21:09:57.039Z,7.76
2023-01-01T21:12:24.933Z,7.68
2023-01-01T21:14:58.058Z,7.65
2023-01-01T21:17:30.691Z,7.67
2023-01-01T21:19:58.613Z,7.67
2023-01-01T21:22:27.153Z,7.70
2023-01-01T21:25:23.992Z,7.67
2023-01-01T21:28:09.221Z,7.68
2023-01-01T21:31:02.529Z,7.68
2023-01-01T21:33:31.753Z,7.69
2023-01-01T21:36:00.246Z,7.70
2023-01-01T21:38:33.627Z,7.67
2023-01-01T21:41:01.707Z,7.68
2023-01-01T21:43:39.745Z,7.69
2023-01-01T21:46:07.686Z,7.68
2023-01-01T21:48:42.603Z,7.65
2023-01-01T21:51:42.696Z,7.62
2023-01-01T21:54:15.389Z,7.54
2023-01-01T21:56:53.057Z,7.55
2023-01-01T21:59:39.429Z,7.49
2023-01-01T22:02:07.545Z,7.47
2023-01-01T22:04:43.431Z,7.46
2023-01-01T22:10:30.954Z,7.44
2023-01-01T22:13:00.157Z,7.43
2023-01-01T22:15:31.921Z,7.43
2023-01-01T22:18:13.176Z,7.44
2023-01-01T22:20:43.113Z,7.42
2023-01-01T22:23:49.262Z,7.42
2023-01-01T22:26:23.218Z,7.40
2023-01-01T22:28:53.032Z,7.37
2023-01-01T22:31:25.139Z,7.36
2023-01-01T22:33:57.733Z,7.35
2023-01-01T22:36:27.473Z,7.34
2023-01-01T22:38:57.280Z,7.32
2023-01-01T22:41:30.132Z,7.29
2023-01-01T22:44:06.340Z,7.26
2023-01-01T22:46:38.448Z,7.21
2023-01-01T22:49:16.322Z,7.18
2023-01-01T22:51:44.973Z,7.19
2023-01-01T22:54:12.867Z,7.18
2023-01-01T22:56:40.848Z,7.16
2023-01-01T22:59:13.377Z,7.10
2023-01-01T23:01:41.519Z,7.06
2023-01-01T23:04:11.794Z,7.08
2023-01-01T23:06:39.869Z,7.02
2023-01-01T23:09:12.417Z,7.03
2023-01-01T23:11:40.323Z,7.01
2023-01-01T23:14:26.747Z,7.01
2023-01-01T23:16:54.714Z,6.97
2023-01-01T23:19:22.641Z,6.95
2023-01-01T23:21:51.973Z,6.92
2023-01-01T23:24:20.789Z,6.91
2023-01-01T23:26:48.751Z,6.88
2023-01-01T23:29:16.673Z,6.85
2023-01-01T23:31:44.664Z,6.82
2023-01-01T23:34:12.593Z,6.78
2023-01-01T23:36:43.846Z,6.76
2023-01-01T23:39:12.965Z,6.71
2023-01-01T23:41:41.755Z,6.75
2023-01-01T23:44:09.703Z,6.75
2023-01-01T23:46:38.334Z,6.69
2023-01-01T23:49:06.769Z,6.71
2023-01-01T23:51:35.084Z,6.68
2023-01-01T23:54:07.887Z,6.67
2023-01-01T23:56:35.829Z,6.67
2023-01-01T23:59:08.974Z,6.69
